Flying Cloud — WDG8551 — position and weather

sailwx.info

Track history (hours):
 
Tides and Currents Weather Stations Pressure Air Temp Water Temp Dewpoint Dewpoint Depression Visibility Wind Speed Wind Dir Waves Ship Positions

Flying Cloud

Owner: Boston Harbor Cruises, Boston, MA. More information available from US FCC via Universal Licensing System and Coast Guard Vessel Documentation Center.

Last reported at 2017-Dec-15 02:30 UTC. Time now 2017-Dec-15 08:14 UTC.
Position N 42°22' W 071°03'.

Length 23 m.

Type: High speed craft. MMSI: 367578710.

Date/timePositionNaut miles runAvg speedWind from/ knotsBaromVisibWave heightAir tempDewpointWater temp
2017-Dec-15 02:30N 42°22' W 071°03'1 0.5
2017-Dec-15 01:00N 42°22' W 071°02'812.0
2017-Dec-15 00:20N 42°15' W 070°55'5 0.9
2017-Dec-14 18:26N 42°20' W 070°58'3 3.7
2017-Dec-14 17:35N 42°17' W 070°57'622.6
2017-Dec-14 17:20N 42°22' W 071°02'0 0.3
2017-Dec-14 16:08N 42°22' W 071°03'0 1.9
2017-Dec-14 15:58N 42°22' W 071°03'2 1.3
2017-Dec-14 14:31N 42°20' W 071°01'126.1
2017-Dec-14 14:29N 42°21' W 071°02'1 1.2
2017-Dec-14 14:00N 42°22' W 071°02'0 0.4
2017-Dec-14 13:06N 42°21' W 071°02'1 6.2
2017-Dec-14 12:59N 42°22' W 071°03'3 2.7
2017-Dec-14 12:02N 42°20' W 071°00'125.4
2017-Dec-14 12:00N 42°21' W 071°01'1 2.9
2017-Dec-14 11:30N 42°22' W 071°03'4 0.5
2017-Dec-14 03:14N 42°19' W 070°59'412.1
2017-Dec-14 02:54N 42°22' W 071°02'0 0.3
2017-Dec-14 02:30N 42°22' W 071°02'7 8.2
2017-Dec-14 01:42N 42°17' W 070°56'617.0
2017-Dec-14 01:23N 42°21' W 071°01'1 1.7
2017-Dec-14 00:57N 42°22' W 071°02'6 7.8
2017-Dec-14 00:08N 42°17' W 070°56'1 8.3
2017-Dec-14 00:00N 42°18' W 070°55'713.5
2017-Dec-13 23:30N 42°22' W 071°03'712.4
2017-Dec-13 22:58N 42°18' W 070°55'714.5
2017-Dec-13 22:30N 42°22' W 071°03'1 1.9
2017-Dec-13 22:00N 42°22' W 071°02'815.5
2017-Dec-13 21:29N 42°15' W 070°55'3 6.2
2017-Dec-13 20:59N 42°18' W 070°56'612.6
2017-Dec-13 20:30N 42°22' W 071°02'6 4.8
2017-Dec-13 19:19N 42°17' W 070°57'619.1
2017-Dec-13 19:00N 42°22' W 071°03'4 7.3
2017-Dec-13 18:27N 42°20' W 070°58'3 3.6
2017-Dec-13 17:35N 42°17' W 070°57'226.2
2017-Dec-13 17:29N 42°19' W 070°59'4 8.2
2017-Dec-13 17:01N 42°22' W 071°03'0 0.0
2017-Dec-13 16:19N 42°22' W 071°03'0 0.6
2017-Dec-13 15:59N 42°22' W 071°03'4 7.5
2017-Dec-13 15:29N 42°19' W 070°59'5 8.3
2017-Dec-13 14:54N 42°15' W 070°55'817.9
2017-Dec-13 14:29N 42°21' W 071°02'1 1.5
2017-Dec-13 14:01N 42°22' W 071°02'1 1.3
2017-Dec-13 13:10N 42°21' W 071°01'2 8.4
2017-Dec-13 12:59N 42°22' W 071°03'6 6.5
2017-Dec-13 12:00N 42°18' W 070°56'612.7
2017-Dec-13 11:30N 42°22' W 071°03'3 0.4
2017-Dec-13 03:11N 42°20' W 070°60'310.4
2017-Dec-13 02:55N 42°22' W 071°02'0 0.4
2017-Dec-13 02:30N 42°21' W 071°02'710.4
2017-Dec-13 01:48N 42°16' W 070°55'716.0
2017-Dec-13 01:23N 42°21' W 071°01'1 1.8
2017-Dec-13 00:58N 42°22' W 071°02'812.1
2017-Dec-13 00:18N 42°15' W 070°55'3 9.9
2017-Dec-13 00:00N 42°18' W 070°56'612.7
2017-Dec-12 23:30N 42°22' W 071°03'710.6
2017-Dec-12 22:52N 42°18' W 070°55'717.4
2017-Dec-12 22:30N 42°22' W 071°03'1 2.0
2017-Dec-12 22:00N 42°22' W 071°02'5 5.5
2017-Dec-12 21:01N 42°18' W 070°56'025.1
2017-Dec-12 21:00N 42°19' W 070°56'612.0
2017-Dec-12 20:30N 42°22' W 071°03'7 6.3
2017-Dec-12 19:23N 42°17' W 070°56'718.5
2017-Dec-12 19:00N 42°22' W 071°03'2 3.6
2017-Dec-12 18:30N 42°21' W 071°01'1 0.6
2017-Dec-12 17:26N 42°20' W 071°00'2 5.6
2017-Dec-12 17:00N 42°22' W 071°03'0 0.0
2017-Dec-12 16:30N 42°22' W 071°03'0 0.4
2017-Dec-12 16:00N 42°22' W 071°03'4 7.0
2017-Dec-12 15:30N 42°20' W 070°59'2 2.5
2017-Dec-12 14:38N 42°18' W 070°58'325.1
2017-Dec-12 14:30N 42°21' W 071°01'1 2.9
2017-Dec-12 14:00N 42°22' W 071°02'612.1
2017-Dec-12 13:29N 42°18' W 070°55'714.5
2017-Dec-12 13:01N 42°22' W 071°03'7 6.6
2017-Dec-12 12:01N 42°19' W 070°55'111.5
2017-Dec-12 11:58N 42°19' W 070°55'612.9
2017-Dec-12 11:30N 42°22' W 071°03'710.9
2017-Dec-12 10:54N 42°18' W 070°55'2 0.2
2017-Dec-12 03:17N 42°17' W 070°58'517.4
2017-Dec-12 02:59N 42°22' W 071°02'1 1.8
2017-Dec-12 02:30N 42°22' W 071°03'916.1
2017-Dec-12 01:58N 42°15' W 070°55'812.7
2017-Dec-12 01:22N 42°21' W 071°02'1 1.4
2017-Dec-12 01:00N 42°22' W 071°02'816.0
2017-Dec-12 00:30N 42°15' W 070°55'3 6.2
2017-Dec-12 00:00N 42°18' W 070°56'613.0
2017-Dec-11 23:30N 42°22' W 071°03'710.1
2017-Dec-11 22:52N 42°18' W 070°55'718.6
2017-Dec-11 22:30N 42°22' W 071°03'1 1.9
2017-Dec-11 22:00N 42°22' W 071°02'813.4
2017-Dec-11 21:24N 42°15' W 070°55'3 8.4
2017-Dec-11 20:59N 42°19' W 070°56'612.2
2017-Dec-11 20:30N 42°22' W 071°03'7 6.0
2017-Dec-11 19:21N 42°17' W 070°56'719.4
2017-Dec-11 19:00N 42°22' W 071°03'5 7.5
2017-Dec-11 18:23N 42°20' W 070°57'3 3.8
2017-Dec-11 17:35N 42°17' W 070°57'326.3
2017-Dec-11 17:29N 42°19' W 070°60'4 2.6
2017-Dec-11 16:06N 42°22' W 071°03'0 3.5
2017-Dec-11 16:00N 42°22' W 071°03'3 5.6
2017-Dec-11 15:30N 42°20' W 070°60'4 5.4
2017-Dec-11 14:42N 42°17' W 070°56'524.0
2017-Dec-11 14:30N 42°20' W 071°00'2 4.5
2017-Dec-11 14:00N 42°22' W 071°03'3 3.7
2017-Dec-11 13:15N 42°20' W 070°60'312.3
2017-Dec-11 13:00N 42°22' W 071°03'711.0
2017-Dec-11 12:23N 42°18' W 070°55'1 2.9
2017-Dec-11 11:59N 42°19' W 070°56'511.3
2017-Dec-11 11:30N 42°22' W 071°03'  
2017-Dec-09 03:21N 42°17' W 070°57'515.2
2017-Dec-09 03:00N 42°22' W 071°02'1 1.1
2017-Dec-09 02:30N 42°22' W 071°02'815.1
2017-Dec-09 01:57N 42°15' W 070°55'612.8
2017-Dec-09 01:30N 42°20' W 070°59'2 4.8
2017-Dec-09 01:00N 42°22' W 071°02'813.9
2017-Dec-09 00:25N 42°15' W 070°55'4 8.9
2017-Dec-09 00:00N 42°19' W 070°56'611.7
2017-Dec-08 23:30N 42°22' W 071°03'711.3
2017-Dec-08 22:54N 42°18' W 070°55'716.8
2017-Dec-08 22:30N 42°22' W 071°03'1 2.0
2017-Dec-08 22:01N 42°22' W 071°02'813.9
2017-Dec-08 21:26N 42°15' W 070°55'511.1
2017-Dec-08 20:59N 42°20' W 070°57'2 4.3
2017-Dec-08 20:28N 42°20' W 071°00'6 5.3
2017-Dec-08 19:17N 42°15' W 070°55'4 0.2
2017-Dec-07 15:31N 42°19' W 070°59'226.0
2017-Dec-07 15:26N 42°20' W 071°00'3 2.9
2017-Dec-07 14:34N 42°22' W 071°03'0 0.0
2017-Dec-07 14:31N 42°22' W 071°03'6 9.8
2017-Dec-07 13:54N 42°19' W 070°56'615.1
2017-Dec-07 13:30N 42°22' W 071°03'611.3
2017-Dec-07 12:57N 42°18' W 070°56'613.3
2017-Dec-07 12:29N 42°22' W 071°03'711.3
2017-Dec-07 11:53N 42°18' W 070°55'0 0.0
2017-Dec-07 02:42N 42°18' W 070°55'521.2
2017-Dec-07 02:29N 42°21' W 071°00'2 3.9
2017-Dec-07 02:00N 42°22' W 071°02'814.9
2017-Dec-07 01:27N 42°15' W 070°55'4 9.2
2017-Dec-07 00:59N 42°19' W 070°59'4 8.2
2017-Dec-07 00:27N 42°22' W 071°03'817.7
2017-Dec-06 23:58N 42°16' W 070°55'3 5.3
2017-Dec-06 23:29N 42°18' W 070°55'714.3
2017-Dec-06 23:00N 42°22' W 071°03'610.4
2017-Dec-06 22:28N 42°18' W 070°58'2 3.1
2017-Dec-06 21:58N 42°17' W 070°56'714.5
2017-Dec-06 21:30N 42°22' W 071°03'611.4
2017-Dec-06 20:55N 42°17' W 070°57'  
Track history (hours):
 
Tides and Currents Weather Stations Pressure Air Temp Water Temp Dewpoint Dewpoint Depression Visibility Wind Speed Wind Dir Waves Ship Positions

Flying Cloud

Owner: Boston Harbor Cruises, Boston, MA. More information available from US FCC via Universal Licensing System and Coast Guard Vessel Documentation Center.

Last reported at 2017-Dec-15 02:30 UTC. Time now 2017-Dec-15 08:14 UTC.
Position N 42°22' W 071°03'.

Length 23 m.

Type: High speed craft. MMSI: 367578710.

Date/timePositionNaut miles runAvg speedWind from/ knotsBaromVisibWave heightAir tempDewpointWater temp
2017-Dec-15 02:30N 42°22' W 071°03'1 0.5
2017-Dec-15 01:00N 42°22' W 071°02'812.0
2017-Dec-15 00:20N 42°15' W 070°55'5 0.9
2017-Dec-14 18:26N 42°20' W 070°58'3 3.7
2017-Dec-14 17:35N 42°17' W 070°57'622.6
2017-Dec-14 17:20N 42°22' W 071°02'0 0.3
2017-Dec-14 16:08N 42°22' W 071°03'0 1.9
2017-Dec-14 15:58N 42°22' W 071°03'2 1.3
2017-Dec-14 14:31N 42°20' W 071°01'126.1
2017-Dec-14 14:29N 42°21' W 071°02'1 1.2
2017-Dec-14 14:00N 42°22' W 071°02'0 0.4
2017-Dec-14 13:06N 42°21' W 071°02'1 6.2
2017-Dec-14 12:59N 42°22' W 071°03'3 2.7
2017-Dec-14 12:02N 42°20' W 071°00'125.4
2017-Dec-14 12:00N 42°21' W 071°01'1 2.9
2017-Dec-14 11:30N 42°22' W 071°03'4 0.5
2017-Dec-14 03:14N 42°19' W 070°59'412.1
2017-Dec-14 02:54N 42°22' W 071°02'0 0.3
2017-Dec-14 02:30N 42°22' W 071°02'7 8.2
2017-Dec-14 01:42N 42°17' W 070°56'617.0
2017-Dec-14 01:23N 42°21' W 071°01'1 1.7
2017-Dec-14 00:57N 42°22' W 071°02'6 7.8
2017-Dec-14 00:08N 42°17' W 070°56'1 8.3
2017-Dec-14 00:00N 42°18' W 070°55'713.5
2017-Dec-13 23:30N 42°22' W 071°03'712.4
2017-Dec-13 22:58N 42°18' W 070°55'714.5
2017-Dec-13 22:30N 42°22' W 071°03'1 1.9
2017-Dec-13 22:00N 42°22' W 071°02'815.5
2017-Dec-13 21:29N 42°15' W 070°55'3 6.2
2017-Dec-13 20:59N 42°18' W 070°56'612.6
2017-Dec-13 20:30N 42°22' W 071°02'6 4.8
2017-Dec-13 19:19N 42°17' W 070°57'619.1
2017-Dec-13 19:00N 42°22' W 071°03'4 7.3
2017-Dec-13 18:27N 42°20' W 070°58'3 3.6
2017-Dec-13 17:35N 42°17' W 070°57'226.2
2017-Dec-13 17:29N 42°19' W 070°59'4 8.2
2017-Dec-13 17:01N 42°22' W 071°03'0 0.0
2017-Dec-13 16:19N 42°22' W 071°03'0 0.6
2017-Dec-13 15:59N 42°22' W 071°03'4 7.5
2017-Dec-13 15:29N 42°19' W 070°59'5 8.3
2017-Dec-13 14:54N 42°15' W 070°55'817.9
2017-Dec-13 14:29N 42°21' W 071°02'1 1.5
2017-Dec-13 14:01N 42°22' W 071°02'1 1.3
2017-Dec-13 13:10N 42°21' W 071°01'2 8.4
2017-Dec-13 12:59N 42°22' W 071°03'6 6.5
2017-Dec-13 12:00N 42°18' W 070°56'612.7
2017-Dec-13 11:30N 42°22' W 071°03'3 0.4
2017-Dec-13 03:11N 42°20' W 070°60'310.4
2017-Dec-13 02:55N 42°22' W 071°02'0 0.4
2017-Dec-13 02:30N 42°21' W 071°02'710.4
2017-Dec-13 01:48N 42°16' W 070°55'716.0
2017-Dec-13 01:23N 42°21' W 071°01'1 1.8
2017-Dec-13 00:58N 42°22' W 071°02'812.1
2017-Dec-13 00:18N 42°15' W 070°55'3 9.9
2017-Dec-13 00:00N 42°18' W 070°56'612.7
2017-Dec-12 23:30N 42°22' W 071°03'710.6
2017-Dec-12 22:52N 42°18' W 070°55'717.4
2017-Dec-12 22:30N 42°22' W 071°03'1 2.0
2017-Dec-12 22:00N 42°22' W 071°02'5 5.5
2017-Dec-12 21:01N 42°18' W 070°56'025.1
2017-Dec-12 21:00N 42°19' W 070°56'612.0
2017-Dec-12 20:30N 42°22' W 071°03'7 6.3
2017-Dec-12 19:23N 42°17' W 070°56'718.5
2017-Dec-12 19:00N 42°22' W 071°03'2 3.6
2017-Dec-12 18:30N 42°21' W 071°01'1 0.6
2017-Dec-12 17:26N 42°20' W 071°00'2 5.6
2017-Dec-12 17:00N 42°22' W 071°03'0 0.0
2017-Dec-12 16:30N 42°22' W 071°03'0 0.4
2017-Dec-12 16:00N 42°22' W 071°03'4 7.0
2017-Dec-12 15:30N 42°20' W 070°59'2 2.5
2017-Dec-12 14:38N 42°18' W 070°58'325.1
2017-Dec-12 14:30N 42°21' W 071°01'1 2.9
2017-Dec-12 14:00N 42°22' W 071°02'612.1
2017-Dec-12 13:29N 42°18' W 070°55'714.5
2017-Dec-12 13:01N 42°22' W 071°03'7 6.6
2017-Dec-12 12:01N 42°19' W 070°55'111.5
2017-Dec-12 11:58N 42°19' W 070°55'612.9
2017-Dec-12 11:30N 42°22' W 071°03'710.9
2017-Dec-12 10:54N 42°18' W 070°55'2 0.2
2017-Dec-12 03:17N 42°17' W 070°58'517.4
2017-Dec-12 02:59N 42°22' W 071°02'1 1.8
2017-Dec-12 02:30N 42°22' W 071°03'916.1
2017-Dec-12 01:58N 42°15' W 070°55'812.7
2017-Dec-12 01:22N 42°21' W 071°02'1 1.4
2017-Dec-12 01:00N 42°22' W 071°02'816.0
2017-Dec-12 00:30N 42°15' W 070°55'3 6.2
2017-Dec-12 00:00N 42°18' W 070°56'613.0
2017-Dec-11 23:30N 42°22' W 071°03'710.1
2017-Dec-11 22:52N 42°18' W 070°55'718.6
2017-Dec-11 22:30N 42°22' W 071°03'1 1.9
2017-Dec-11 22:00N 42°22' W 071°02'813.4
2017-Dec-11 21:24N 42°15' W 070°55'3 8.4
2017-Dec-11 20:59N 42°19' W 070°56'612.2
2017-Dec-11 20:30N 42°22' W 071°03'7 6.0
2017-Dec-11 19:21N 42°17' W 070°56'719.4
2017-Dec-11 19:00N 42°22' W 071°03'5 7.5
2017-Dec-11 18:23N 42°20' W 070°57'3 3.8
2017-Dec-11 17:35N 42°17' W 070°57'326.3
2017-Dec-11 17:29N 42°19' W 070°60'4 2.6
2017-Dec-11 16:06N 42°22' W 071°03'0 3.5
2017-Dec-11 16:00N 42°22' W 071°03'3 5.6
2017-Dec-11 15:30N 42°20' W 070°60'4 5.4
2017-Dec-11 14:42N 42°17' W 070°56'524.0
2017-Dec-11 14:30N 42°20' W 071°00'2 4.5
2017-Dec-11 14:00N 42°22' W 071°03'3 3.7
2017-Dec-11 13:15N 42°20' W 070°60'312.3
2017-Dec-11 13:00N 42°22' W 071°03'711.0
2017-Dec-11 12:23N 42°18' W 070°55'1 2.9
2017-Dec-11 11:59N 42°19' W 070°56'511.3
2017-Dec-11 11:30N 42°22' W 071°03'  
2017-Dec-09 03:21N 42°17' W 070°57'515.2
2017-Dec-09 03:00N 42°22' W 071°02'1 1.1
2017-Dec-09 02:30N 42°22' W 071°02'815.1
2017-Dec-09 01:57N 42°15' W 070°55'612.8
2017-Dec-09 01:30N 42°20' W 070°59'2 4.8
2017-Dec-09 01:00N 42°22' W 071°02'813.9
2017-Dec-09 00:25N 42°15' W 070°55'4 8.9
2017-Dec-09 00:00N 42°19' W 070°56'611.7
2017-Dec-08 23:30N 42°22' W 071°03'711.3
2017-Dec-08 22:54N 42°18' W 070°55'716.8
2017-Dec-08 22:30N 42°22' W 071°03'1 2.0
2017-Dec-08 22:01N 42°22' W 071°02'813.9
2017-Dec-08 21:26N 42°15' W 070°55'511.1
2017-Dec-08 20:59N 42°20' W 070°57'2 4.3
2017-Dec-08 20:28N 42°20' W 071°00'6 5.3
2017-Dec-08 19:17N 42°15' W 070°55'4 0.2
2017-Dec-07 15:31N 42°19' W 070°59'226.0
2017-Dec-07 15:26N 42°20' W 071°00'3 2.9
2017-Dec-07 14:34N 42°22' W 071°03'0 0.0
2017-Dec-07 14:31N 42°22' W 071°03'6 9.8
2017-Dec-07 13:54N 42°19' W 070°56'615.1
2017-Dec-07 13:30N 42°22' W 071°03'611.3
2017-Dec-07 12:57N 42°18' W 070°56'613.3
2017-Dec-07 12:29N 42°22' W 071°03'711.3
2017-Dec-07 11:53N 42°18' W 070°55'0 0.0
2017-Dec-07 02:42N 42°18' W 070°55'521.2
2017-Dec-07 02:29N 42°21' W 071°00'2 3.9
2017-Dec-07 02:00N 42°22' W 071°02'814.9
2017-Dec-07 01:27N 42°15' W 070°55'4 9.2
2017-Dec-07 00:59N 42°19' W 070°59'4 8.2
2017-Dec-07 00:27N 42°22' W 071°03'817.7
2017-Dec-06 23:58N 42°16' W 070°55'3 5.3
2017-Dec-06 23:29N 42°18' W 070°55'714.3
2017-Dec-06 23:00N 42°22' W 071°03'610.4
2017-Dec-06 22:28N 42°18' W 070°58'2 3.1
2017-Dec-06 21:58N 42°17' W 070°56'714.5
2017-Dec-06 21:30N 42°22' W 071°03'611.4
2017-Dec-06 20:55N 42°17' W 070°57'  

Dump ship's entire track history